sensor_id;sensor_type;location;lat;lon;timestamp;P1;durP1;ratioP1;P2;durP2;ratioP2
44824;SDS011;30542;47.928;2.138;2023-08-31T00:04:17;2.05;;;0.75;;
44824;SDS011;30542;47.928;2.138;2023-08-31T00:09:17;2.08;;;0.77;;
44824;SDS011;30542;47.928;2.138;2023-08-31T00:14:19;3.95;;;0.82;;
44824;SDS011;30542;47.928;2.138;2023-08-31T00:19:19;1.93;;;0.50;;
44824;SDS011;30542;47.928;2.138;2023-08-31T00:24:19;2.00;;;0.50;;
44824;SDS011;30542;47.928;2.138;2023-08-31T00:29:21;2.15;;;0.60;;
44824;SDS011;30542;47.928;2.138;2023-08-31T00:34:23;1.25;;;0.50;;
44824;SDS011;30542;47.928;2.138;2023-08-31T00:39:23;1.57;;;0.70;;
44824;SDS011;30542;47.928;2.138;2023-08-31T00:44:24;1.07;;;0.67;;
44824;SDS011;30542;47.928;2.138;2023-08-31T00:49:24;0.87;;;0.60;;
44824;SDS011;30542;47.928;2.138;2023-08-31T00:54:24;1.20;;;0.67;;
44824;SDS011;30542;47.928;2.138;2023-08-31T00:59:25;1.03;;;0.33;;
44824;SDS011;30542;47.928;2.138;2023-08-31T01:04:30;1.55;;;0.60;;
44824;SDS011;30542;47.928;2.138;2023-08-31T01:14:59;2.05;;;0.50;;
44824;SDS011;30542;47.928;2.138;2023-08-31T01:20:10;1.30;;;0.50;;
44824;SDS011;30542;47.928;2.138;2023-08-31T01:25:12;1.60;;;0.40;;
44824;SDS011;30542;47.928;2.138;2023-08-31T01:30:13;1.17;;;0.47;;
44824;SDS011;30542;47.928;2.138;2023-08-31T01:35:14;0.60;;;0.30;;
44824;SDS011;30542;47.928;2.138;2023-08-31T01:40:18;0.98;;;0.40;;
44824;SDS011;30542;47.928;2.138;2023-08-31T01:45:23;1.45;;;0.50;;
44824;SDS011;30542;47.928;2.138;2023-08-31T01:50:25;1.35;;;0.60;;
44824;SDS011;30542;47.928;2.138;2023-08-31T01:55:25;0.60;;;0.50;;
44824;SDS011;30542;47.928;2.138;2023-08-31T02:00:26;0.87;;;0.53;;
44824;SDS011;30542;47.928;2.138;2023-08-31T02:05:26;1.60;;;0.60;;
44824;SDS011;30542;47.928;2.138;2023-08-31T02:10:27;1.55;;;0.43;;
44824;SDS011;30542;47.928;2.138;2023-08-31T02:15:29;1.02;;;0.50;;
44824;SDS011;30542;47.928;2.138;2023-08-31T02:20:30;0.85;;;0.50;;
44824;SDS011;30542;47.928;2.138;2023-08-31T02:25:30;1.77;;;0.75;;
44824;SDS011;30542;47.928;2.138;2023-08-31T02:30:31;0.60;;;0.43;;
44824;SDS011;30542;47.928;2.138;2023-08-31T02:35:31;1.53;;;0.60;;
44824;SDS011;30542;47.928;2.138;2023-08-31T02:40:33;0.73;;;0.50;;
44824;SDS011;30542;47.928;2.138;2023-08-31T02:45:34;1.50;;;0.50;;
44824;SDS011;30542;47.928;2.138;2023-08-31T02:50:34;0.50;;;0.30;;
44824;SDS011;30542;47.928;2.138;2023-08-31T02:55:35;0.82;;;0.40;;
44824;SDS011;30542;47.928;2.138;2023-08-31T03:00:35;1.07;;;0.53;;
44824;SDS011;30542;47.928;2.138;2023-08-31T03:05:39;0.80;;;0.40;;
44824;SDS011;30542;47.928;2.138;2023-08-31T03:10:40;0.75;;;0.50;;
44824;SDS011;30542;47.928;2.138;2023-08-31T03:15:40;0.68;;;0.35;;
44824;SDS011;30542;47.928;2.138;2023-08-31T03:20:40;0.82;;;0.60;;
44824;SDS011;30542;47.928;2.138;2023-08-31T03:25:41;0.60;;;0.32;;
44824;SDS011;30542;47.928;2.138;2023-08-31T03:30:41;0.80;;;0.50;;
44824;SDS011;30542;47.928;2.138;2023-08-31T03:35:44;1.95;;;0.50;;
44824;SDS011;30542;47.928;2.138;2023-08-31T03:40:54;1.07;;;0.40;;
44824;SDS011;30542;47.928;2.138;2023-08-31T03:45:55;0.50;;;0.40;;
44824;SDS011;30542;47.928;2.138;2023-08-31T03:50:56;0.68;;;0.50;;
44824;SDS011;30542;47.928;2.138;2023-08-31T03:55:57;0.90;;;0.40;;
44824;SDS011;30542;47.928;2.138;2023-08-31T04:00:57;0.80;;;0.43;;
44824;SDS011;30542;47.928;2.138;2023-08-31T04:05:58;0.50;;;0.30;;
44824;SDS011;30542;47.928;2.138;2023-08-31T04:10:58;1.65;;;0.30;;
44824;SDS011;30542;47.928;2.138;2023-08-31T04:15:58;1.38;;;0.35;;
44824;SDS011;30542;47.928;2.138;2023-08-31T04:20:59;0.80;;;0.30;;
44824;SDS011;30542;47.928;2.138;2023-08-31T04:26:09;0.80;;;0.40;;
44824;SDS011;30542;47.928;2.138;2023-08-31T04:31:10;0.90;;;0.38;;
44824;SDS011;30542;47.928;2.138;2023-08-31T04:36:11;0.60;;;0.40;;
44824;SDS011;30542;47.928;2.138;2023-08-31T04:41:11;1.00;;;0.40;;
44824;SDS011;30542;47.928;2.138;2023-08-31T04:46:12;0.77;;;0.40;;
44824;SDS011;30542;47.928;2.138;2023-08-31T04:56:34;0.93;;;0.47;;
44824;SDS011;30542;47.928;2.138;2023-08-31T05:01:34;0.90;;;0.60;;
44824;SDS011;30542;47.928;2.138;2023-08-31T05:06:35;0.60;;;0.40;;
44824;SDS011;30542;47.928;2.138;2023-08-31T05:11:35;1.27;;;0.37;;
44824;SDS011;30542;47.928;2.138;2023-08-31T05:16:36;0.90;;;0.57;;
44824;SDS011;30542;47.928;2.138;2023-08-31T05:21:36;1.70;;;0.40;;
44824;SDS011;30542;47.928;2.138;2023-08-31T05:26:36;1.10;;;0.60;;
44824;SDS011;30542;47.928;2.138;2023-08-31T05:31:37;2.10;;;0.50;;
44824;SDS011;30542;47.928;2.138;2023-08-31T05:36:37;3.03;;;1.27;;
44824;SDS011;30542;47.928;2.138;2023-08-31T05:41:40;1.47;;;0.90;;
44824;SDS011;30542;47.928;2.138;2023-08-31T05:46:41;2.92;;;1.25;;
44824;SDS011;30542;47.928;2.138;2023-08-31T05:51:41;3.40;;;1.30;;
44824;SDS011;30542;47.928;2.138;2023-08-31T05:56:41;5.17;;;0.83;;
44824;SDS011;30542;47.928;2.138;2023-08-31T06:01:43;1.80;;;0.60;;
44824;SDS011;30542;47.928;2.138;2023-08-31T06:06:43;2.38;;;0.75;;
44824;SDS011;30542;47.928;2.138;2023-08-31T06:11:44;2.13;;;0.80;;
44824;SDS011;30542;47.928;2.138;2023-08-31T06:16:44;3.15;;;0.73;;
44824;SDS011;30542;47.928;2.138;2023-08-31T06:21:45;1.83;;;0.70;;
44824;SDS011;30542;47.928;2.138;2023-08-31T06:26:45;1.43;;;0.97;;
44824;SDS011;30542;47.928;2.138;2023-08-31T06:31:45;3.80;;;1.15;;
44824;SDS011;30542;47.928;2.138;2023-08-31T06:36:46;3.57;;;0.70;;
44824;SDS011;30542;47.928;2.138;2023-08-31T06:41:46;2.63;;;0.80;;
44824;SDS011;30542;47.928;2.138;2023-08-31T06:46:47;3.65;;;1.02;;
44824;SDS011;30542;47.928;2.138;2023-08-31T06:51:47;2.33;;;0.80;;
44824;SDS011;30542;47.928;2.138;2023-08-31T06:56:48;3.97;;;0.88;;
44824;SDS011;30542;47.928;2.138;2023-08-31T07:01:48;3.27;;;1.00;;
44824;SDS011;30542;47.928;2.138;2023-08-31T07:06:49;2.38;;;0.77;;
44824;SDS011;30542;47.928;2.138;2023-08-31T07:11:49;3.20;;;0.90;;
44824;SDS011;30542;47.928;2.138;2023-08-31T07:16:49;4.57;;;1.00;;
44824;SDS011;30542;47.928;2.138;2023-08-31T07:21:50;1.73;;;0.68;;
44824;SDS011;30542;47.928;2.138;2023-08-31T07:26:50;1.77;;;0.73;;
44824;SDS011;30542;47.928;2.138;2023-08-31T07:31:51;3.87;;;0.90;;
44824;SDS011;30542;47.928;2.138;2023-08-31T07:36:51;3.27;;;1.20;;
44824;SDS011;30542;47.928;2.138;2023-08-31T07:41:52;3.07;;;0.90;;
44824;SDS011;30542;47.928;2.138;2023-08-31T07:46:54;2.40;;;0.82;;
44824;SDS011;30542;47.928;2.138;2023-08-31T07:51:55;3.15;;;1.30;;
44824;SDS011;30542;47.928;2.138;2023-08-31T07:56:55;4.60;;;1.20;;
44824;SDS011;30542;47.928;2.138;2023-08-31T08:01:55;6.32;;;1.60;;
44824;SDS011;30542;47.928;2.138;2023-08-31T08:06:56;10.97;;;2.77;;
44824;SDS011;30542;47.928;2.138;2023-08-31T08:11:56;15.50;;;4.30;;
44824;SDS011;30542;47.928;2.138;2023-08-31T08:16:56;18.93;;;5.50;;
44824;SDS011;30542;47.928;2.138;2023-08-31T08:21:57;23.20;;;7.03;;
44824;SDS011;30542;47.928;2.138;2023-08-31T08:26:57;15.57;;;4.87;;
44824;SDS011;30542;47.928;2.138;2023-08-31T08:31:57;16.83;;;4.97;;
44824;SDS011;30542;47.928;2.138;2023-08-31T08:36:58;14.57;;;4.30;;
44824;SDS011;30542;47.928;2.138;2023-08-31T08:41:58;15.43;;;4.77;;
44824;SDS011;30542;47.928;2.138;2023-08-31T08:47:00;14.65;;;4.60;;
44824;SDS011;30542;47.928;2.138;2023-08-31T08:52:00;15.05;;;4.50;;
44824;SDS011;30542;47.928;2.138;2023-08-31T08:57:01;13.00;;;3.55;;
44824;SDS011;30542;47.928;2.138;2023-08-31T09:02:03;12.68;;;3.72;;
44824;SDS011;30542;47.928;2.138;2023-08-31T09:07:03;11.98;;;3.63;;
44824;SDS011;30542;47.928;2.138;2023-08-31T09:12:07;8.20;;;3.00;;
44824;SDS011;30542;47.928;2.138;2023-08-31T09:17:10;8.07;;;2.63;;
44824;SDS011;30542;47.928;2.138;2023-08-31T09:22:10;6.68;;;2.63;;
44824;SDS011;30542;47.928;2.138;2023-08-31T09:27:11;10.07;;;3.33;;
44824;SDS011;30542;47.928;2.138;2023-08-31T09:32:15;7.20;;;2.23;;
44824;SDS011;30542;47.928;2.138;2023-08-31T09:37:17;7.10;;;2.58;;
44824;SDS011;30542;47.928;2.138;2023-08-31T09:42:17;6.00;;;2.60;;
44824;SDS011;30542;47.928;2.138;2023-08-31T09:47:17;4.10;;;2.30;;
44824;SDS011;30542;47.928;2.138;2023-08-31T09:52:19;6.03;;;2.38;;
44824;SDS011;30542;47.928;2.138;2023-08-31T09:57:21;9.32;;;2.30;;
44824;SDS011;30542;47.928;2.138;2023-08-31T10:02:23;6.25;;;1.67;;
44824;SDS011;30542;47.928;2.138;2023-08-31T10:07:25;5.57;;;1.80;;
44824;SDS011;30542;47.928;2.138;2023-08-31T10:12:26;7.53;;;2.17;;
44824;SDS011;30542;47.928;2.138;2023-08-31T10:17:27;6.80;;;2.03;;
44824;SDS011;30542;47.928;2.138;2023-08-31T10:22:28;5.63;;;1.77;;
44824;SDS011;30542;47.928;2.138;2023-08-31T10:27:37;5.97;;;2.03;;
44824;SDS011;30542;47.928;2.138;2023-08-31T10:32:41;5.20;;;1.95;;
44824;SDS011;30542;47.928;2.138;2023-08-31T10:37:41;5.87;;;1.90;;
44824;SDS011;30542;47.928;2.138;2023-08-31T10:42:45;5.87;;;1.50;;
44824;SDS011;30542;47.928;2.138;2023-08-31T10:47:47;8.52;;;1.80;;
44824;SDS011;30542;47.928;2.138;2023-08-31T10:52:47;6.43;;;1.67;;
44824;SDS011;30542;47.928;2.138;2023-08-31T10:57:48;3.47;;;1.58;;
44824;SDS011;30542;47.928;2.138;2023-08-31T11:02:48;5.13;;;1.33;;
44824;SDS011;30542;47.928;2.138;2023-08-31T11:07:49;3.47;;;1.63;;
44824;SDS011;30542;47.928;2.138;2023-08-31T11:12:53;4.75;;;1.33;;
44824;SDS011;30542;47.928;2.138;2023-08-31T11:17:54;3.50;;;1.17;;
44824;SDS011;30542;47.928;2.138;2023-08-31T11:22:55;3.65;;;1.30;;
44824;SDS011;30542;47.928;2.138;2023-08-31T11:27:57;3.33;;;1.15;;
44824;SDS011;30542;47.928;2.138;2023-08-31T11:33:03;3.53;;;1.27;;
44824;SDS011;30542;47.928;2.138;2023-08-31T11:38:05;4.13;;;1.42;;
44824;SDS011;30542;47.928;2.138;2023-08-31T11:43:05;4.72;;;1.33;;
44824;SDS011;30542;47.928;2.138;2023-08-31T11:48:09;3.92;;;1.63;;
44824;SDS011;30542;47.928;2.138;2023-08-31T11:53:09;5.22;;;1.25;;
44824;SDS011;30542;47.928;2.138;2023-08-31T11:58:10;5.97;;;1.85;;
44824;SDS011;30542;47.928;2.138;2023-08-31T12:03:10;8.43;;;1.70;;
44824;SDS011;30542;47.928;2.138;2023-08-31T12:08:11;4.85;;;1.55;;
44824;SDS011;30542;47.928;2.138;2023-08-31T12:13:11;3.75;;;1.10;;
44824;SDS011;30542;47.928;2.138;2023-08-31T12:18:15;6.65;;;1.50;;
44824;SDS011;30542;47.928;2.138;2023-08-31T12:23:15;5.63;;;1.80;;
44824;SDS011;30542;47.928;2.138;2023-08-31T12:28:19;4.57;;;1.63;;
44824;SDS011;30542;47.928;2.138;2023-08-31T12:33:20;5.10;;;1.77;;
44824;SDS011;30542;47.928;2.138;2023-08-31T12:38:21;4.60;;;1.23;;
44824;SDS011;30542;47.928;2.138;2023-08-31T12:43:22;3.53;;;1.40;;
44824;SDS011;30542;47.928;2.138;2023-08-31T12:48:22;3.40;;;1.23;;
44824;SDS011;30542;47.928;2.138;2023-08-31T12:53:23;2.92;;;1.20;;
44824;SDS011;30542;47.928;2.138;2023-08-31T12:58:23;3.30;;;0.85;;
44824;SDS011;30542;47.928;2.138;2023-08-31T13:03:24;4.23;;;1.37;;
44824;SDS011;30542;47.928;2.138;2023-08-31T13:08:24;2.05;;;0.80;;
44824;SDS011;30542;47.928;2.138;2023-08-31T13:13:24;3.80;;;1.20;;
44824;SDS011;30542;47.928;2.138;2023-08-31T13:18:25;3.27;;;1.00;;
44824;SDS011;30542;47.928;2.138;2023-08-31T13:23:25;4.90;;;1.30;;
44824;SDS011;30542;47.928;2.138;2023-08-31T13:28:26;3.53;;;0.80;;
44824;SDS011;30542;47.928;2.138;2023-08-31T13:33:26;2.80;;;1.03;;
44824;SDS011;30542;47.928;2.138;2023-08-31T13:38:30;3.95;;;1.33;;
44824;SDS011;30542;47.928;2.138;2023-08-31T13:43:30;1.57;;;0.60;;
44824;SDS011;30542;47.928;2.138;2023-08-31T13:48:31;3.00;;;0.93;;
44824;SDS011;30542;47.928;2.138;2023-08-31T13:53:31;2.30;;;1.00;;
44824;SDS011;30542;47.928;2.138;2023-08-31T13:58:31;3.00;;;1.00;;
44824;SDS011;30542;47.928;2.138;2023-08-31T14:03:32;3.13;;;0.90;;
44824;SDS011;30542;47.928;2.138;2023-08-31T14:08:32;2.67;;;1.00;;
44824;SDS011;30542;47.928;2.138;2023-08-31T14:13:32;3.83;;;1.00;;
44824;SDS011;30542;47.928;2.138;2023-08-31T14:18:33;3.33;;;0.97;;
44824;SDS011;30542;47.928;2.138;2023-08-31T14:23:33;3.17;;;1.00;;
44824;SDS011;30542;47.928;2.138;2023-08-31T14:28:33;3.23;;;1.10;;
44824;SDS011;30542;47.928;2.138;2023-08-31T14:33:34;3.73;;;0.90;;
44824;SDS011;30542;47.928;2.138;2023-08-31T14:38:34;2.73;;;0.70;;
44824;SDS011;30542;47.928;2.138;2023-08-31T14:43:34;4.00;;;1.13;;
44824;SDS011;30542;47.928;2.138;2023-08-31T14:48:35;1.73;;;0.90;;
44824;SDS011;30542;47.928;2.138;2023-08-31T14:53:35;2.80;;;0.90;;
44824;SDS011;30542;47.928;2.138;2023-08-31T14:58:35;2.93;;;1.03;;
44824;SDS011;30542;47.928;2.138;2023-08-31T15:03:36;1.83;;;0.80;;
44824;SDS011;30542;47.928;2.138;2023-08-31T15:08:38;2.17;;;0.93;;
44824;SDS011;30542;47.928;2.138;2023-08-31T15:13:40;2.47;;;0.50;;
44824;SDS011;30542;47.928;2.138;2023-08-31T15:18:40;1.63;;;0.73;;
44824;SDS011;30542;47.928;2.138;2023-08-31T15:23:41;3.92;;;0.90;;
44824;SDS011;30542;47.928;2.138;2023-08-31T15:28:41;6.82;;;2.08;;
44824;SDS011;30542;47.928;2.138;2023-08-31T15:33:42;3.70;;;1.73;;
44824;SDS011;30542;47.928;2.138;2023-08-31T15:38:43;3.55;;;2.15;;
44824;SDS011;30542;47.928;2.138;2023-08-31T15:43:43;6.57;;;2.93;;
44824;SDS011;30542;47.928;2.138;2023-08-31T15:48:44;6.78;;;2.53;;
44824;SDS011;30542;47.928;2.138;2023-08-31T15:53:44;4.72;;;1.65;;
44824;SDS011;30542;47.928;2.138;2023-08-31T15:58:45;5.78;;;1.58;;
44824;SDS011;30542;47.928;2.138;2023-08-31T16:03:45;4.00;;;1.30;;
44824;SDS011;30542;47.928;2.138;2023-08-31T16:08:45;3.78;;;1.20;;
44824;SDS011;30542;47.928;2.138;2023-08-31T16:13:46;3.78;;;1.67;;
44824;SDS011;30542;47.928;2.138;2023-08-31T16:18:47;7.20;;;1.58;;
44824;SDS011;30542;47.928;2.138;2023-08-31T16:23:49;3.92;;;1.58;;
44824;SDS011;30542;47.928;2.138;2023-08-31T16:28:49;4.17;;;1.40;;
44824;SDS011;30542;47.928;2.138;2023-08-31T16:33:50;3.20;;;1.35;;
44824;SDS011;30542;47.928;2.138;2023-08-31T16:38:50;5.80;;;1.58;;
44824;SDS011;30542;47.928;2.138;2023-08-31T16:43:50;3.00;;;1.93;;
44824;SDS011;30542;47.928;2.138;2023-08-31T16:48:53;4.47;;;1.90;;
44824;SDS011;30542;47.928;2.138;2023-08-31T16:53:53;2.67;;;1.33;;
44824;SDS011;30542;47.928;2.138;2023-08-31T16:58:54;3.63;;;1.50;;
44824;SDS011;30542;47.928;2.138;2023-08-31T17:03:56;4.32;;;1.35;;
44824;SDS011;30542;47.928;2.138;2023-08-31T17:08:56;3.28;;;1.38;;
44824;SDS011;30542;47.928;2.138;2023-08-31T17:13:56;4.40;;;1.50;;
44824;SDS011;30542;47.928;2.138;2023-08-31T17:18:57;3.47;;;1.50;;
44824;SDS011;30542;47.928;2.138;2023-08-31T17:23:58;3.05;;;1.20;;
44824;SDS011;30542;47.928;2.138;2023-08-31T17:28:58;1.77;;;0.82;;
44824;SDS011;30542;47.928;2.138;2023-08-31T17:33:58;5.90;;;2.93;;
44824;SDS011;30542;47.928;2.138;2023-08-31T17:38:59;7.17;;;4.00;;
44824;SDS011;30542;47.928;2.138;2023-08-31T17:43:59;9.53;;;5.57;;
44824;SDS011;30542;47.928;2.138;2023-08-31T17:48:59;7.13;;;4.70;;
44824;SDS011;30542;47.928;2.138;2023-08-31T17:54:00;8.63;;;4.87;;
44824;SDS011;30542;47.928;2.138;2023-08-31T17:59:00;8.03;;;5.07;;
44824;SDS011;30542;47.928;2.138;2023-08-31T18:04:01;7.72;;;5.45;;
44824;SDS011;30542;47.928;2.138;2023-08-31T18:09:03;6.82;;;5.03;;
44824;SDS011;30542;47.928;2.138;2023-08-31T18:14:06;8.23;;;5.30;;
44824;SDS011;30542;47.928;2.138;2023-08-31T18:19:07;8.02;;;5.05;;
44824;SDS011;30542;47.928;2.138;2023-08-31T18:24:07;10.43;;;4.87;;
44824;SDS011;30542;47.928;2.138;2023-08-31T18:29:08;8.43;;;4.80;;
44824;SDS011;30542;47.928;2.138;2023-08-31T18:34:08;7.32;;;5.28;;
44824;SDS011;30542;47.928;2.138;2023-08-31T18:39:08;8.43;;;4.93;;
44824;SDS011;30542;47.928;2.138;2023-08-31T18:44:09;7.57;;;4.75;;
44824;SDS011;30542;47.928;2.138;2023-08-31T18:49:09;6.93;;;4.73;;
44824;SDS011;30542;47.928;2.138;2023-08-31T18:54:10;7.10;;;4.32;;
44824;SDS011;30542;47.928;2.138;2023-08-31T18:59:10;8.10;;;4.97;;
44824;SDS011;30542;47.928;2.138;2023-08-31T19:04:11;6.20;;;4.40;;
44824;SDS011;30542;47.928;2.138;2023-08-31T19:09:11;6.90;;;4.43;;
44824;SDS011;30542;47.928;2.138;2023-08-31T19:14:11;5.73;;;3.97;;
44824;SDS011;30542;47.928;2.138;2023-08-31T19:19:12;6.17;;;4.20;;
44824;SDS011;30542;47.928;2.138;2023-08-31T19:24:12;5.97;;;4.10;;
44824;SDS011;30542;47.928;2.138;2023-08-31T19:29:12;5.03;;;3.58;;
44824;SDS011;30542;47.928;2.138;2023-08-31T19:34:13;6.67;;;4.50;;
44824;SDS011;30542;47.928;2.138;2023-08-31T19:39:13;6.23;;;4.00;;
44824;SDS011;30542;47.928;2.138;2023-08-31T19:44:13;7.90;;;4.23;;
44824;SDS011;30542;47.928;2.138;2023-08-31T19:49:14;8.37;;;4.03;;
44824;SDS011;30542;47.928;2.138;2023-08-31T19:54:15;6.65;;;3.80;;
44824;SDS011;30542;47.928;2.138;2023-08-31T19:59:15;5.35;;;3.08;;
44824;SDS011;30542;47.928;2.138;2023-08-31T20:04:16;5.57;;;3.55;;
44824;SDS011;30542;47.928;2.138;2023-08-31T20:09:17;5.73;;;3.53;;
44824;SDS011;30542;47.928;2.138;2023-08-31T20:14:17;5.13;;;3.65;;
44824;SDS011;30542;47.928;2.138;2023-08-31T20:19:18;5.57;;;3.63;;
44824;SDS011;30542;47.928;2.138;2023-08-31T20:24:19;5.90;;;3.53;;
44824;SDS011;30542;47.928;2.138;2023-08-31T20:29:19;6.17;;;2.90;;
44824;SDS011;30542;47.928;2.138;2023-08-31T20:34:20;4.38;;;2.60;;
44824;SDS011;30542;47.928;2.138;2023-08-31T20:39:20;4.47;;;2.83;;
44824;SDS011;30542;47.928;2.138;2023-08-31T20:44:21;6.75;;;3.35;;
44824;SDS011;30542;47.928;2.138;2023-08-31T20:49:21;3.97;;;2.58;;
44824;SDS011;30542;47.928;2.138;2023-08-31T20:54:22;4.50;;;2.63;;
44824;SDS011;30542;47.928;2.138;2023-08-31T20:59:23;4.43;;;3.10;;
44824;SDS011;30542;47.928;2.138;2023-08-31T21:04:23;5.70;;;3.33;;
44824;SDS011;30542;47.928;2.138;2023-08-31T21:09:23;4.20;;;2.60;;
44824;SDS011;30542;47.928;2.138;2023-08-31T21:14:24;3.97;;;2.73;;
44824;SDS011;30542;47.928;2.138;2023-08-31T21:19:24;3.85;;;2.60;;
44824;SDS011;30542;47.928;2.138;2023-08-31T21:24:24;4.82;;;2.72;;
44824;SDS011;30542;47.928;2.138;2023-08-31T21:29:25;5.22;;;2.85;;
44824;SDS011;30542;47.928;2.138;2023-08-31T21:34:25;3.30;;;2.50;;
44824;SDS011;30542;47.928;2.138;2023-08-31T21:39:25;3.70;;;2.63;;
44824;SDS011;30542;47.928;2.138;2023-08-31T21:44:27;4.72;;;2.60;;
44824;SDS011;30542;47.928;2.138;2023-08-31T21:49:27;4.15;;;2.65;;
44824;SDS011;30542;47.928;2.138;2023-08-31T21:54:27;2.97;;;2.05;;
44824;SDS011;30542;47.928;2.138;2023-08-31T21:59:28;2.90;;;2.05;;
44824;SDS011;30542;47.928;2.138;2023-08-31T22:04:28;2.42;;;2.10;;
44824;SDS011;30542;47.928;2.138;2023-08-31T22:09:28;3.43;;;2.00;;
44824;SDS011;30542;47.928;2.138;2023-08-31T22:14:29;4.63;;;2.13;;
44824;SDS011;30542;47.928;2.138;2023-08-31T22:19:29;2.70;;;1.92;;
44824;SDS011;30542;47.928;2.138;2023-08-31T22:24:30;3.63;;;2.30;;
44824;SDS011;30542;47.928;2.138;2023-08-31T22:29:30;3.10;;;2.03;;
44824;SDS011;30542;47.928;2.138;2023-08-31T22:34:30;2.73;;;1.93;;
44824;SDS011;30542;47.928;2.138;2023-08-31T22:39:31;3.97;;;2.03;;
44824;SDS011;30542;47.928;2.138;2023-08-31T22:44:31;2.63;;;1.80;;
44824;SDS011;30542;47.928;2.138;2023-08-31T22:49:32;3.37;;;1.97;;
44824;SDS011;30542;47.928;2.138;2023-08-31T22:54:32;2.17;;;1.67;;
44824;SDS011;30542;47.928;2.138;2023-08-31T22:59:33;3.20;;;2.17;;
44824;SDS011;30542;47.928;2.138;2023-08-31T23:04:33;3.72;;;1.90;;
44824;SDS011;30542;47.928;2.138;2023-08-31T23:09:34;3.13;;;1.98;;
44824;SDS011;30542;47.928;2.138;2023-08-31T23:14:35;2.53;;;1.90;;
44824;SDS011;30542;47.928;2.138;2023-08-31T23:19:36;1.90;;;1.42;;
44824;SDS011;30542;47.928;2.138;2023-08-31T23:24:36;2.73;;;1.93;;
44824;SDS011;30542;47.928;2.138;2023-08-31T23:29:36;1.73;;;1.60;;
44824;SDS011;30542;47.928;2.138;2023-08-31T23:34:37;2.17;;;1.33;;
44824;SDS011;30542;47.928;2.138;2023-08-31T23:39:37;1.83;;;1.47;;
44824;SDS011;30542;47.928;2.138;2023-08-31T23:44:38;3.28;;;1.70;;
44824;SDS011;30542;47.928;2.138;2023-08-31T23:49:38;1.97;;;1.30;;
44824;SDS011;30542;47.928;2.138;2023-08-31T23:54:38;2.50;;;1.27;;
44824;SDS011;30542;47.928;2.138;2023-08-31T23:59:39;1.90;;;1.40;;
